Time;durP1;ratioP1;P1;durP2;ratioP2;P2;SDS_P1;SDS_P2;PMS_P1;PMS_P2;Temp;Humidity;BMP_temperature;BMP_pressure;BME280_temperature;BME280_humidity;BME280_pressure;Samples;Min_cycle;Max_cycle;Signal;HPM_P1;HPM_P2
2023/11/12 15:22:16;;;;;;;0.80;0.80;;;16.30;70.20;;;15.72;61.22;94159.75;5094759;27;20906;-43
2023/11/12 15:24:44;;;;;;;0.60;0.60;;;16.10;71.10;;;16.30;60.25;94160.31;5068745;28;20202;-40
2023/11/12 15:27:12;;;;;;;0.63;0.63;;;16.40;70.90;;;16.86;58.71;94167.28;5068454;28;20199;-42
2023/11/12 15:29:43;;;;;;;0.60;0.60;;;16.80;70.40;;;17.31;57.44;94160.84;5068717;28;20191;-42
2023/11/12 15:32:11;;;;;;;0.60;0.60;;;17.20;69.60;;;17.62;57.09;94152.34;5052007;28;20194;-41
2023/11/12 15:34:39;;;;;;;0.60;0.60;;;17.60;69.10;;;17.95;56.65;94161.84;5069544;28;20613;-42
2023/11/12 15:37:09;;;;;;;0.50;0.50;;;18.00;68.50;;;18.15;55.93;94155.88;5068222;28;20203;-42
2023/11/12 15:39:40;;;;;;;0.60;0.60;;;18.30;68.00;;;18.35;55.42;94155.16;5068232;28;20630;-42
2023/11/12 15:58:34;;;;;;;0.40;0.40;;;18.70;67.00;;;20.22;49.60;94145.47;5069309;28;21064;-65
2023/11/12 16:01:02;;;;;;;0.50;0.50;;;20.50;63.90;;;20.15;49.41;94145.75;5049520;28;20563;-65
2023/11/12 16:03:32;;;;;;;0.50;0.50;;;20.70;63.70;;;20.17;49.26;94156.16;5049394;28;20199;-63
2023/11/12 16:06:00;;;;;;;0.40;0.40;;;20.90;63.10;;;20.09;49.34;94158.31;5049721;28;20225;-64
2023/11/12 16:08:28;;;;;;;0.45;0.45;;;21.00;62.60;;;19.96;48.93;94150.88;5049231;28;20215;-65
2023/11/12 16:10:57;;;;;;;0.50;0.50;;;21.00;62.30;;;19.91;49.61;94159.66;5049481;28;20311;-63
2023/11/12 16:13:25;;;;;;;0.38;0.38;;;21.10;62.20;;;19.80;49.70;94158.84;5049284;28;20260;-66
2023/11/12 16:15:52;;;;;;;0.50;0.50;;;21.00;61.90;;;19.70;49.58;94153.56;5049317;28;20225;-65
2023/11/12 16:18:20;;;;;;;0.45;0.45;;;21.00;61.80;;;19.66;49.34;94163.13;5048915;28;20203;-66
2023/11/12 16:20:49;;;;;;;0.40;0.40;;;20.90;61.70;;;19.57;49.23;94167.41;5031762;28;20610;-67
2023/11/12 16:23:20;;;;;;;0.40;0.40;;;20.90;61.60;;;19.49;49.12;94172.19;5048934;28;20632;-66
2023/11/12 16:25:49;;;;;;;0.40;0.40;;;20.80;61.70;;;19.45;49.31;94175.63;5049075;28;20581;-66
2023/11/12 16:28:17;;;;;;;0.40;0.40;;;20.80;61.60;;;19.38;49.35;94178.53;5048788;28;20202;-63
2023/11/12 16:30:47;;;;;;;0.40;0.40;;;20.70;61.50;;;19.23;49.81;94163.38;5049027;28;20289;-63
2023/11/12 16:33:16;;;;;;;0.40;0.40;;;20.70;61.50;;;19.18;49.66;94163.38;5048900;28;20662;-66
2023/11/12 16:35:45;;;;;;;0.40;0.40;;;20.60;61.50;;;19.19;49.89;94179.06;5047936;28;20203;-67
2023/11/12 16:38:13;;;;;;;0.40;0.40;;;20.60;61.50;;;19.13;49.90;94185.44;5048660;28;20195;-66
2023/11/12 16:40:44;;;;;;;0.40;0.40;;;20.50;61.50;;;19.00;50.03;94177.97;5048880;28;20671;-66
2023/11/12 16:43:14;;;;;;;0.43;0.43;;;20.40;61.40;;;18.97;49.69;94184.59;5048555;28;20248;-66
2023/11/12 16:45:43;;;;;;;0.50;0.50;;;20.40;61.50;;;18.98;50.21;94185.38;5048042;28;20228;-66
2023/11/12 16:48:12;;;;;;;0.40;0.40;;;20.40;61.50;;;18.89;50.16;94174.44;5048723;28;20223;-64
2023/11/12 16:50:41;;;;;;;0.50;0.50;;;20.30;61.40;;;18.89;50.24;94185.06;5048628;28;20216;-63
2023/11/12 16:53:10;;;;;;;0.40;0.40;;;20.30;61.30;;;18.81;49.49;94180.25;5043351;28;20191;-66
2023/11/12 16:55:40;;;;;;;0.40;0.40;;;20.30;61.40;;;18.79;49.58;94182.41;5050476;28;20240;-66
2023/11/12 16:58:09;;;;;;;0.40;0.40;;;20.20;61.30;;;18.79;49.73;94196.47;5051724;28;20757;-62
2023/11/12 17:00:40;;;;;;;0.50;0.50;;;20.20;61.30;;;18.70;49.67;94187.41;5055237;28;20533;-67
2023/11/12 17:03:09;;;;;;;0.45;0.45;;;20.20;61.30;;;18.66;49.92;94187.16;5055244;28;20752;-61
2023/11/12 17:05:39;;;;;;;0.45;0.45;;;20.10;61.20;;;18.68;49.67;94190.31;5054160;28;20714;-68
2023/11/12 17:08:08;;;;;;;0.50;0.50;;;20.10;61.20;;;18.66;49.81;94191.66;5053962;28;20660;-67
2023/11/12 17:10:36;;;;;;;0.50;0.50;;;20.10;61.20;;;18.63;49.65;94194.84;5055117;28;20208;-66
2023/11/12 17:13:05;;;;;;;0.60;0.60;;;20.10;61.20;;;18.59;49.86;94199.88;5055087;28;20198;-68
2023/11/12 17:15:34;;;;;;;0.40;0.40;;;20.00;61.10;;;18.56;50.05;94195.84;5053871;28;20195;-68
2023/11/12 17:18:05;;;;;;;0.40;0.40;;;20.00;61.10;;;18.50;49.98;94196.88;5055036;28;20194;-68
2023/11/12 17:20:34;;;;;;;0.47;0.47;;;20.00;61.10;;;18.51;49.96;94198.50;5054701;28;20271;-69
2023/11/12 17:23:03;;;;;;;0.50;0.50;;;20.00;61.10;;;18.50;49.54;94206.72;5053735;28;20299;-68
2023/11/12 17:25:33;;;;;;;0.40;0.40;;;19.90;61.00;;;18.42;49.57;94200.06;5054764;28;20185;-68
2023/11/12 17:28:02;;;;;;;0.47;0.47;;;19.90;61.00;;;18.44;49.70;94216.50;5054664;28;20201;-65
2023/11/12 17:30:35;;;;;;;0.50;0.50;;;19.90;61.00;;;18.43;49.98;94214.13;5054265;28;20186;-63
2023/11/12 17:33:04;;;;;;;0.52;0.52;;;19.90;61.00;;;18.35;50.13;94204.81;5054629;28;20203;-68
2023/11/12 17:35:34;;;;;;;0.50;0.50;;;19.90;61.00;;;18.37;49.55;94211.44;5054692;28;20186;-68
2023/11/12 17:38:03;;;;;;;0.50;0.50;;;19.80;61.80;;;18.36;49.83;94215.16;5037220;28;20198;-69
2023/11/12 17:40:36;;;;;;;0.50;0.50;;;19.80;60.80;;;18.33;50.10;94217.53;5054247;28;20215;-64
2023/11/12 17:43:06;;;;;;;0.40;0.40;;;19.80;60.80;;;18.31;50.10;94220.44;5054428;28;20709;-69
2023/11/12 17:45:35;;;;;;;0.40;0.40;;;19.80;60.90;;;18.21;50.11;94205.25;5054421;28;20197;-67
2023/11/12 17:48:04;;;;;;;0.52;0.52;;;19.80;60.90;;;18.25;49.86;94221.47;5054952;28;20197;-69
2023/11/12 17:50:35;;;;;;;0.43;0.43;;;19.70;60.80;;;18.25;49.59;94221.47;5053033;28;20245;-69
2023/11/12 17:53:04;;;;;;;0.52;0.52;;;19.70;60.70;;;18.24;50.01;94228.63;5054367;28;20202;-68
2023/11/12 17:55:33;;;;;;;0.60;0.60;;;19.70;60.70;;;18.10;49.57;94216.84;5054655;28;20189;-66
2023/11/12 17:58:03;;;;;;;0.40;0.40;;;19.70;61.70;;;18.19;49.66;94225.16;5052141;28;20244;-67
2023/11/12 18:00:32;;;;;;;0.60;0.60;;;19.70;60.70;;;18.19;49.46;94228.59;5068733;28;20288;-64
2023/11/12 18:03:02;;;;;;;0.52;0.52;;;19.60;60.70;;;18.18;49.51;94228.88;5054207;28;20248;-64
2023/11/12 18:05:32;;;;;;;0.50;0.50;;;19.60;60.60;;;18.15;50.00;94232.84;5052999;28;20199;-64
2023/11/12 18:08:02;;;;;;;0.50;0.50;;;19.60;60.60;;;18.08;49.93;94227.72;5036487;28;20196;-68
2023/11/12 18:10:33;;;;;;;0.50;0.50;;;19.60;60.70;;;18.11;49.43;94233.59;5053527;28;20199;-65
2023/11/12 18:13:03;;;;;;;0.50;0.50;;;19.60;60.70;;;18.10;49.63;94237.31;5036625;28;20194;-67
2023/11/12 18:15:33;;;;;;;0.40;0.40;;;19.60;60.60;;;18.08;49.90;94235.69;5052523;28;20660;-67
2023/11/12 18:18:02;;;;;;;0.50;0.50;;;19.60;60.70;;;18.05;49.92;94228.25;5053914;28;20196;-68
2023/11/12 18:20:33;;;;;;;0.40;0.40;;;19.50;60.60;;;18.05;49.43;94236.22;5053322;28;20204;-68
2023/11/12 18:23:06;;;;;;;0.60;0.60;;;19.50;60.60;;;17.98;49.47;94229.50;5053742;28;20203;-67
2023/11/12 18:25:36;;;;;;;0.50;0.50;;;19.50;60.60;;;18.01;49.69;94244.94;5052459;28;20270;-69
2023/11/12 18:28:10;;;;;;;0.50;0.50;;;19.50;60.70;;;17.99;50.07;94245.19;5053700;28;20196;-70
2023/11/12 18:30:41;;;;;;;0.50;0.50;;;19.50;60.60;;;17.97;49.73;94255.25;5036358;28;20191;-68
2023/11/12 18:33:18;;;;;;;0.50;0.50;;;19.50;60.60;;;17.90;50.01;94244.81;5052485;28;20197;-70
2023/11/12 18:35:50;;;;;;;0.40;0.40;;;19.50;60.60;;;17.95;50.00;94244.09;5052334;28;20280;-68
2023/11/12 18:38:22;;;;;;;0.50;0.50;;;19.50;60.70;;;17.96;49.73;94256.31;5052890;28;20219;-64
2023/11/12 18:40:53;;;;;;;0.50;0.50;;;19.40;60.60;;;17.89;49.68;94248.56;5052023;28;20313;-68
2023/11/12 18:43:24;;;;;;;0.60;0.60;;;19.40;60.60;;;17.93;49.57;94251.47;5053392;28;20227;-66
2023/11/12 18:45:55;;;;;;;0.50;0.50;;;19.40;60.60;;;17.81;49.69;94234.94;5053381;28;20194;-69
2023/11/12 18:48:26;;;;;;;0.50;0.50;;;19.40;60.60;;;17.84;49.59;94235.22;5052056;28;20201;-69
2023/11/12 18:50:55;;;;;;;0.52;0.52;;;19.40;60.60;;;17.89;49.41;94253.84;5035915;28;20282;-71
2023/11/12 18:53:27;;;;;;;0.50;0.50;;;19.40;61.50;;;17.90;49.48;94255.44;5051978;28;20251;-66
2023/11/12 18:55:59;;;;;;;0.40;0.40;;;19.40;60.60;;;17.88;50.14;94252.25;5052277;28;20188;-64
2023/11/12 18:58:31;;;;;;;0.55;0.55;;;19.40;60.60;;;17.86;50.00;94248.25;5035278;28;20264;-69
2023/11/12 19:01:02;;;;;;;0.60;0.60;;;19.40;60.50;;;17.86;50.02;94251.69;5052996;28;20195;-70
2023/11/12 19:03:33;;;;;;;0.60;0.60;;;19.30;60.50;;;17.80;49.45;94243.94;5052909;28;20217;-69
2023/11/12 19:06:06;;;;;;;0.55;0.55;;;19.30;60.50;;;17.84;49.99;94266.28;5051120;28;20569;-69
2023/11/12 19:08:39;;;;;;;0.50;0.50;;;19.30;60.60;;;17.77;49.45;94255.84;5052734;28;20284;-69
2023/11/12 19:11:12;;;;;;;0.50;0.50;;;19.30;60.50;;;17.70;50.07;94250.78;5052702;28;20696;-68
2023/11/12 19:13:46;;;;;;;0.50;0.50;;;19.30;60.50;;;17.76;50.06;94257.72;5051548;28;20191;-65
2023/11/12 19:16:16;;;;;;;0.65;0.65;;;19.30;60.50;;;17.83;49.51;94270.75;5052281;28;20558;-70
2023/11/12 19:18:48;;;;;;;0.40;0.40;;;19.30;60.50;;;17.79;49.55;94269.69;5052633;28;20192;-65
2023/11/12 19:21:20;;;;;;;0.40;0.40;;;19.30;60.50;;;17.75;50.07;94257.97;5052384;28;20249;-70
2023/11/12 19:23:51;;;;;;;0.40;0.40;;;19.30;60.50;;;17.81;49.92;94264.94;5052733;28;20215;-70
2023/11/12 19:26:22;;;;;;;0.45;0.45;;;19.30;60.60;;;17.80;49.65;94268.63;5052440;28;20201;-70
2023/11/12 19:28:51;;;;;;;0.50;0.50;;;19.30;60.60;;;17.80;49.87;94284.53;5052663;28;20188;-70
2023/11/12 19:31:22;;;;;;;0.50;0.50;;;19.30;60.60;;;17.80;49.49;94281.88;5052359;28;20279;-70
2023/11/12 19:34:03;;;;;;;0.40;0.40;;;19.30;60.50;;;17.79;50.09;94287.47;5052429;28;20567;-66
2023/11/12 19:36:35;;;;;;;0.52;0.52;;;19.30;60.50;;;17.72;49.93;94283.16;5051621;28;20228;-65
2023/11/12 19:39:12;;;;;;;0.50;0.50;;;19.30;60.50;;;17.72;49.97;94285.00;5052737;28;20183;-70
2023/11/12 19:41:44;;;;;;;0.50;0.50;;;19.30;60.50;;;17.78;49.78;94291.94;5052334;28;20203;-70
2023/11/12 19:44:19;;;;;;;0.50;0.50;;;19.30;60.50;;;17.71;49.67;94284.22;5050955;28;20220;-70
2023/11/12 19:46:51;;;;;;;0.43;0.43;;;19.30;60.50;;;17.64;49.49;94272.19;5052646;28;20195;-70
2023/11/12 19:49:20;;;;;;;0.60;0.60;;;19.20;60.40;;;17.75;49.88;94290.59;5052459;28;20195;-70
2023/11/12 19:51:50;;;;;;;0.47;0.47;;;19.30;60.50;;;17.63;49.88;94278.56;5051125;28;20570;-70
2023/11/12 19:54:20;;;;;;;0.50;0.50;;;19.20;60.30;;;17.68;49.89;94292.66;5052141;28;20192;-69
2023/11/12 19:56:50;;;;;;;0.40;0.40;;;19.20;60.30;;;17.62;49.67;94280.41;5034639;28;20744;-70
2023/11/12 19:59:21;;;;;;;0.57;0.57;;;19.20;60.30;;;17.73;50.16;94305.97;5067827;28;20684;-69
2023/11/12 20:01:53;;;;;;;0.40;0.40;;;19.20;60.30;;;17.74;49.51;94304.13;5052419;28;20617;-70
2023/11/12 20:04:25;;;;;;;0.50;0.50;;;19.20;60.30;;;17.71;49.97;94305.44;5051833;28;20273;-70
2023/11/12 20:06:55;;;;;;;0.50;0.50;;;19.20;60.30;;;17.74;49.93;94307.56;5067530;28;20201;-70
2023/11/12 20:09:24;;;;;;;0.50;0.50;;;19.20;60.20;;;17.73;49.74;94310.47;5067428;28;20224;-71
2023/11/12 20:11:55;;;;;;;0.50;0.50;;;19.20;60.30;;;17.67;49.90;94293.69;5065905;28;20597;-70
2023/11/12 20:14:26;;;;;;;0.50;0.50;;;19.20;60.30;;;17.71;49.53;94309.91;5051990;28;20208;-69
2023/11/12 20:16:59;;;;;;;0.40;0.40;;;19.20;60.20;;;17.67;49.57;94306.19;5052046;28;20192;-69
2023/11/12 20:19:33;;;;;;;0.50;0.50;;;19.20;60.20;;;17.71;49.71;94321.34;5052084;28;20253;-66
2023/11/12 20:22:03;;;;;;;0.43;0.43;;;19.20;60.20;;;17.72;49.35;94317.66;5050581;28;20242;-68
2023/11/12 20:24:36;;;;;;;0.50;0.50;;;19.20;60.30;;;17.72;49.59;94327.44;5051931;28;20231;-68
2023/11/12 20:27:08;;;;;;;0.50;0.50;;;19.20;61.10;;;17.70;49.52;94322.38;5035144;28;20208;-64
2023/11/12 20:29:38;;;;;;;0.43;0.43;;;19.20;60.20;;;17.71;49.88;94326.66;5054814;28;20187;-69
2023/11/12 20:32:14;;;;;;;0.50;0.50;;;19.20;60.20;;;17.65;49.23;94327.66;5055890;28;20282;-70
2023/11/12 20:34:46;;;;;;;0.50;0.50;;;19.20;60.20;;;17.64;49.39;94322.56;5054439;28;20648;-71
2023/11/12 20:37:18;;;;;;;0.40;0.40;;;19.20;60.20;;;17.62;49.57;94311.44;5054884;28;20271;-69
2023/11/12 20:39:49;;;;;;;0.40;0.40;;;19.20;60.20;;;17.69;49.68;94328.75;5038391;28;20228;-68
2023/11/12 20:42:19;;;;;;;0.40;0.40;;;19.20;60.10;;;17.68;49.42;94329.00;5054050;28;20211;-70
2023/11/12 20:44:48;;;;;;;0.50;0.50;;;19.20;60.10;;;17.61;49.52;94321.22;5054065;28;20543;-69
2023/11/12 20:47:18;;;;;;;0.40;0.40;;;19.20;60.20;;;17.68;49.74;94329.00;5071070;28;20203;-71
2023/11/12 20:49:49;;;;;;;0.52;0.52;;;19.20;60.20;;;17.65;49.36;94321.53;5054028;28;20658;-68
2023/11/12 20:52:20;;;;;;;0.57;0.57;;;19.20;60.00;;;17.65;49.27;94324.19;5053940;28;20285;-69
2023/11/12 20:54:51;;;;;;;0.60;0.60;;;19.20;60.10;;;17.64;49.27;94325.22;5054171;28;20208;-68
2023/11/12 20:57:20;;;;;;;0.50;0.50;;;19.20;60.00;;;17.65;49.41;94326.84;5054943;28;20327;-70
2023/11/12 20:59:50;;;;;;;0.40;0.40;;;19.10;60.00;;;17.57;49.13;94326.22;5054946;28;20206;-70
2023/11/12 21:02:22;;;;;;;0.43;0.43;;;19.20;60.10;;;17.61;49.38;94334.50;5053888;28;20288;-71
2023/11/12 21:04:52;;;;;;;0.50;0.50;;;19.10;59.90;;;17.63;49.06;94340.34;5055110;28;20204;-66
2023/11/12 21:07:23;;;;;;;0.40;0.40;;;19.10;59.90;;;17.56;49.23;94318.53;5053924;28;20195;-70
2023/11/12 21:09:52;;;;;;;0.50;0.50;;;19.10;59.90;;;17.56;49.65;94315.88;5054999;28;20199;-70
2023/11/12 21:12:22;;;;;;;0.40;0.40;;;19.10;59.90;;;17.62;49.66;94330.00;5053463;28;20614;-70
2023/11/12 21:14:51;;;;;;;0.52;0.52;;;19.10;59.90;;;17.60;49.86;94323.09;5053819;28;20202;-70
2023/11/12 21:17:22;;;;;;;0.55;0.55;;;19.10;59.90;;;17.53;49.06;94311.88;5053674;28;20200;-70
2023/11/12 21:19:50;;;;;;;0.50;0.50;;;19.10;59.80;;;17.52;49.50;94310.28;5053756;28;20245;-70
2023/11/12 21:22:20;;;;;;;0.50;0.50;;;19.10;59.90;;;17.58;49.30;94314.56;5053272;28;20277;-71
2023/11/12 21:24:47;;;;;;;0.40;0.40;;;19.10;59.90;;;17.59;49.36;94312.75;5053792;28;20226;-70
2023/11/12 21:27:15;;;;;;;0.50;0.50;;;19.10;59.90;;;17.58;49.45;94311.94;5053632;28;20646;-71
2023/11/12 21:29:43;;;;;;;0.50;0.50;;;19.10;59.80;;;17.53;48.95;94297.84;5053582;28;20199;-71
2023/11/12 21:32:12;;;;;;;0.40;0.40;;;19.10;59.90;;;17.50;49.05;94298.31;5053417;28;20274;-69
2023/11/12 21:34:40;;;;;;;0.40;0.40;;;19.10;59.70;;;17.57;48.77;94304.22;5054530;28;20202;-70
2023/11/12 21:37:08;;;;;;;0.50;0.50;;;19.10;59.80;;;17.58;49.46;94311.13;5054786;28;20207;-71
2023/11/12 21:39:36;;;;;;;0.40;0.40;;;19.10;59.70;;;17.57;49.15;94307.66;5053313;28;20566;-68
2023/11/12 21:42:07;;;;;;;0.50;0.50;;;19.10;59.70;;;17.58;48.84;94314.56;5053205;28;20253;-71
2023/11/12 21:44:36;;;;;;;0.50;0.50;;;19.10;59.70;;;17.55;49.23;94314.28;5037059;28;20648;-71
2023/11/12 21:47:04;;;;;;;0.40;0.40;;;19.10;59.70;;;17.56;48.90;94323.84;5053248;28;20246;-71
2023/11/12 21:49:32;;;;;;;0.50;0.50;;;19.10;59.70;;;17.55;49.48;94320.41;5053113;28;20271;-64
2023/11/12 21:52:00;;;;;;;0.50;0.50;;;19.10;59.70;;;17.48;49.37;94318.97;5053107;28;20207;-69
2023/11/12 21:54:28;;;;;;;0.50;0.50;;;19.10;59.70;;;17.55;48.82;94330.19;5054251;28;20682;-70
2023/11/12 21:56:56;;;;;;;0.40;0.40;;;19.10;59.60;;;17.53;49.10;94341.03;5052940;28;20314;-66
2023/11/12 21:59:23;;;;;;;0.50;0.50;;;19.10;60.60;;;17.52;48.86;94341.31;5036634;28;20276;-71
2023/11/12 22:01:52;;;;;;;0.47;0.47;;;19.10;59.60;;;17.53;49.02;94337.59;5053955;28;20286;-64
2023/11/12 22:04:24;;;;;;;0.60;0.60;;;19.00;59.40;;;17.48;49.07;94333.03;5052816;28;20226;-70
2023/11/12 22:06:52;;;;;;;0.50;0.50;;;19.00;59.50;;;17.52;48.91;94334.13;5052789;28;20196;-69
2023/11/12 22:09:20;;;;;;;0.40;0.40;;;19.00;59.40;;;17.50;49.12;94336.22;5052884;28;20278;-70
2023/11/12 22:11:51;;;;;;;0.50;0.50;;;19.00;59.30;;;17.48;49.20;94341.00;5053754;28;20191;-70
2023/11/12 22:14:19;;;;;;;0.40;0.40;;;19.00;59.50;;;17.49;49.01;94345.25;5053519;28;20206;-70
2023/11/12 22:16:47;;;;;;;0.50;0.50;;;19.00;59.40;;;17.43;48.70;94338.28;5052563;28;20257;-69
2023/11/12 22:19:14;;;;;;;0.40;0.40;;;19.00;59.40;;;17.47;49.04;94365.09;5052594;28;20571;-70
2023/11/12 22:21:46;;;;;;;0.50;0.50;;;19.00;59.40;;;17.41;48.90;94357.09;5052384;28;20199;-71
2023/11/12 22:24:14;;;;;;;0.60;0.60;;;19.00;59.40;;;17.40;48.78;94358.13;5053489;28;20223;-70
2023/11/12 22:26:42;;;;;;;0.40;0.40;;;19.00;59.40;;;17.47;49.00;94371.22;5052397;28;20192;-72
2023/11/12 22:29:09;;;;;;;0.50;0.50;;;19.00;59.50;;;17.47;48.83;94371.22;5052484;28;20227;-70
2023/11/12 22:31:37;;;;;;;0.50;0.50;;;19.00;59.50;;;17.41;49.06;94372.19;5053546;28;20253;-70
2023/11/12 22:34:04;;;;;;;0.50;0.50;;;19.00;59.60;;;17.48;48.91;94390.56;5053550;28;20231;-70
2023/11/12 22:36:32;;;;;;;0.50;0.50;;;19.00;59.60;;;17.48;48.82;94391.38;5051884;28;21110;-71
2023/11/12 22:38:59;;;;;;;0.40;0.40;;;19.00;59.60;;;17.43;49.22;94386.00;5052128;28;20303;-71
2023/11/12 22:41:27;;;;;;;0.40;0.40;;;19.00;59.70;;;17.49;49.31;94376.25;5053152;28;20607;-71
2023/11/12 22:43:58;;;;;;;0.50;0.50;;;19.00;59.70;;;17.48;49.09;94372.00;5052268;28;20250;-71
2023/11/12 22:46:26;;;;;;;0.50;0.50;;;19.00;59.80;;;17.50;49.28;94367.25;5051868;28;20256;-70
2023/11/12 22:48:54;;;;;;;0.50;0.50;;;19.00;59.70;;;17.48;49.55;94354.25;5053122;28;20192;-70
2023/11/12 22:51:23;;;;;;;0.50;0.50;;;19.00;59.70;;;17.48;49.50;94351.59;5052438;28;20188;-66
2023/11/12 22:53:52;;;;;;;0.45;0.45;;;19.00;59.70;;;17.51;49.05;94353.75;5051675;28;20618;-64
2023/11/12 22:56:20;;;;;;;0.50;0.50;;;19.00;59.70;;;17.43;49.20;94328.47;5051407;28;20241;-70
2023/11/12 22:58:49;;;;;;;0.50;0.50;;;19.00;59.70;;;17.47;48.91;94320.03;5052445;28;20607;-70
2023/11/12 23:01:20;;;;;;;0.50;0.50;;;19.00;59.80;;;17.46;49.35;94316.56;5051892;28;20196;-72
2023/11/12 23:03:49;;;;;;;0.52;0.52;;;19.00;59.70;;;17.53;49.35;94327.78;5052703;28;20593;-70
2023/11/12 23:06:18;;;;;;;0.50;0.50;;;19.10;59.80;;;17.49;49.42;94315.28;5052591;28;20191;-72
2023/11/12 23:08:46;;;;;;;0.45;0.45;;;19.10;59.70;;;17.53;49.36;94314.53;5051720;28;20227;-71
2023/11/12 23:11:14;;;;;;;0.50;0.50;;;19.10;59.60;;;17.54;49.00;94326.75;5051822;28;20218;-71
2023/11/12 23:13:42;;;;;;;0.40;0.40;;;19.10;59.60;;;17.55;48.85;94335.50;5052097;28;20199;-71
2023/11/12 23:16:10;;;;;;;0.50;0.50;;;19.10;59.60;;;17.57;49.27;94341.34;5052960;28;20242;-66
2023/11/12 23:18:38;;;;;;;0.40;0.40;;;19.10;59.60;;;17.57;48.70;94344.00;5035188;28;20195;-70
2023/11/12 23:21:06;;;;;;;0.40;0.40;;;19.10;59.60;;;17.57;48.56;94351.97;5051683;28;20192;-71
2023/11/12 23:23:36;;;;;;;0.40;0.40;;;19.10;59.60;;;17.55;48.75;94359.34;5051702;28;20223;-70
2023/11/12 23:26:04;;;;;;;0.47;0.47;;;19.10;59.60;;;17.50;49.33;94370.69;5051730;28;20207;-71
2023/11/12 23:28:32;;;;;;;0.40;0.40;;;19.10;59.50;;;17.58;48.88;94377.44;5052468;28;20195;-69
2023/11/12 23:31:01;;;;;;;0.50;0.50;;;19.10;59.70;;;17.54;49.24;94378.97;5052704;28;20230;-70
2023/11/12 23:33:29;;;;;;;0.45;0.45;;;19.10;59.60;;;17.58;48.85;94394.13;5051201;28;20283;-70
2023/11/12 23:35:58;;;;;;;0.50;0.50;;;19.10;59.80;;;17.52;49.20;94396.97;5051308;28;20560;-70
2023/11/12 23:38:26;;;;;;;0.50;0.50;;;19.10;59.80;;;17.58;49.35;94411.91;5051088;28;20204;-63
2023/11/12 23:40:54;;;;;;;0.50;0.50;;;19.10;59.80;;;17.59;49.04;94421.47;5034795;28;20203;-70
2023/11/12 23:43:22;;;;;;;0.57;0.57;;;19.10;59.80;;;17.59;49.00;94426.78;5051132;28;20645;-69
2023/11/12 23:45:50;;;;;;;0.50;0.50;;;19.10;59.90;;;17.59;49.33;94416.94;5034855;28;20211;-69
2023/11/12 23:48:18;;;;;;;0.40;0.40;;;19.10;60.00;;;17.56;49.17;94406.03;5052185;28;20286;-69
2023/11/12 23:50:46;;;;;;;0.40;0.40;;;19.10;59.90;;;17.63;49.47;94416.47;5051384;28;20194;-64
2023/11/12 23:53:14;;;;;;;0.40;0.40;;;19.10;59.90;;;17.57;49.05;94403.13;5052235;28;20274;-70
2023/11/12 23:55:41;;;;;;;0.50;0.50;;;19.10;60.00;;;17.58;49.23;94393.34;5052470;28;20206;-69
2023/11/12 23:58:09;;;;;;;0.40;0.40;;;19.10;59.80;;;17.65;49.31;94414.34;5052354;28;20227;-71
